Portada
METAR-TAF:

METAR-TAF

Aeroports :

Caldwell, Nova Jersey, Estats Units d'Amèrica

latitud: 40-52-35N, longitud: 074-16-59W, altitud: 52 m

Observació

L'informe es va fer fa 17 minuts, a les 22:53 UTC
Vent 4 kt del Est/Sud-Est
Temperatura 22°C
Humitat 94%
Pressió 1008 hPa
Visibilitat: 6.4 km
Cel cobert a una alçada de 800 ft
boirina

METAR: KCDW 192253Z AUTO 11004KT 4SM BR OVC008 22/21 A2978 RMK AO2 SLP088 T02170206

Hora: 19:10 (23:10 UTC)


TAF: manca

Observacions i pronòstics meteorològics de més de 4000 aeroports (METAR i TAF).

Les estacions disponibles són els punts grocs i vermells al mapa.

Posi el ratolí al punt desitjat per veure el nom de l'estació.

Feu clic per veure les observacions i els pronòstics meteorològics.

Per canviar el mapa: feu clic els botons verds amb una creu de color negre per apropar; al botó verd amb un guió per allunyar la imatge; o en les fletxes verdes per a mapes adjacents.


METAR-TAF: